createdAt,value
2022-12-20T00:01:29.570Z,5.00
2022-12-20T00:03:58.885Z,5.00
2022-12-20T00:06:26.549Z,5.00
2022-12-20T00:08:58.579Z,5.00
2022-12-20T00:11:26.907Z,5.00
2022-12-20T00:13:53.906Z,5.00
2022-12-20T00:16:26.755Z,5.10
2022-12-20T00:18:56.809Z,5.10
2022-12-20T00:21:24.899Z,5.10
2022-12-20T00:23:52.819Z,5.10
2022-12-20T00:26:22.749Z,5.10
2022-12-20T00:28:49.782Z,5.10
2022-12-20T00:31:19.223Z,5.10
2022-12-20T00:33:47.850Z,5.10
2022-12-20T00:36:16.009Z,5.10
2022-12-20T00:38:45.427Z,5.10
2022-12-20T00:41:14.695Z,5.10
2022-12-20T00:43:41.993Z,5.20
2022-12-20T00:46:11.137Z,5.20
2022-12-20T00:48:38.950Z,5.20
2022-12-20T00:51:09.333Z,5.10
2022-12-20T00:53:36.866Z,5.10
2022-12-20T00:56:05.471Z,5.10
2022-12-20T00:58:35.619Z,5.20
2022-12-20T01:01:03.872Z,5.20
2022-12-20T01:03:31.155Z,5.20
2022-12-20T01:06:02.676Z,5.20
2022-12-20T01:08:31.715Z,5.20
2022-12-20T01:11:13.993Z,5.20
2022-12-20T01:13:44.450Z,5.20
2022-12-20T01:16:19.151Z,5.30
2022-12-20T01:18:46.858Z,5.30
2022-12-20T01:21:15.477Z,5.30
2022-12-20T01:23:42.587Z,5.30
2022-12-20T01:26:14.002Z,5.30
2022-12-20T01:28:42.672Z,5.30
2022-12-20T01:31:11.496Z,5.20
2022-12-20T01:33:38.823Z,5.30
2022-12-20T01:36:08.952Z,5.30
2022-12-20T01:38:35.900Z,5.30
2022-12-20T01:41:04.077Z,5.30
2022-12-20T01:44:08.263Z,5.30
2022-12-20T01:46:39.721Z,5.30
2022-12-20T01:49:14.560Z,5.20
2022-12-20T01:51:45.206Z,5.30
2022-12-20T01:54:21.792Z,5.30
2022-12-20T01:57:00.029Z,5.30
2022-12-20T01:59:28.602Z,5.30
2022-12-20T02:01:59.349Z,5.30
2022-12-20T02:04:26.612Z,5.30
2022-12-20T02:06:53.524Z,5.30
2022-12-20T02:09:20.568Z,5.40
2022-12-20T02:12:16.553Z,5.40
2022-12-20T02:14:52.472Z,5.50
2022-12-20T02:17:56.524Z,5.40
2022-12-20T02:20:44.376Z,5.40
2022-12-20T02:23:26.487Z,5.40
2022-12-20T02:26:11.530Z,5.40
2022-12-20T02:29:02.884Z,5.40
2022-12-20T02:31:49.565Z,5.40
2022-12-20T02:34:17.721Z,5.50
2022-12-20T02:36:44.748Z,5.50
2022-12-20T02:39:16.027Z,5.50
2022-12-20T02:41:59.309Z,5.50
2022-12-20T02:44:48.311Z,5.40
2022-12-20T02:47:21.463Z,5.40
2022-12-20T02:49:51.453Z,5.40
2022-12-20T02:52:20.976Z,5.40
2022-12-20T02:54:48.725Z,5.40
2022-12-20T02:57:39.980Z,5.40
2022-12-20T03:00:22.639Z,5.40
2022-12-20T03:03:10.108Z,5.50
2022-12-20T03:05:45.532Z,5.40
2022-12-20T03:08:13.980Z,5.40
2022-12-20T03:10:40.930Z,5.30
2022-12-20T03:13:08.368Z,5.30
2022-12-20T03:15:37.651Z,5.30
2022-12-20T03:18:04.981Z,5.20
2022-12-20T03:20:32.230Z,5.20
2022-12-20T03:22:59.228Z,5.30
2022-12-20T03:25:26.458Z,5.30
2022-12-20T03:27:53.460Z,5.30
2022-12-20T03:30:22.685Z,5.30
2022-12-20T03:32:50.389Z,5.30
2022-12-20T03:35:17.750Z,5.30
2022-12-20T03:37:44.769Z,5.20
2022-12-20T03:40:12.969Z,5.20
2022-12-20T03:42:39.954Z,5.20
2022-12-20T03:45:07.703Z,5.20
2022-12-20T03:47:35.141Z,5.20
2022-12-20T03:50:04.081Z,5.20
2022-12-20T03:52:34.259Z,5.20
2022-12-20T03:55:01.403Z,5.10
2022-12-20T03:57:39.176Z,5.20
2022-12-20T04:00:17.051Z,5.20
2022-12-20T04:02:47.763Z,5.20
2022-12-20T04:05:15.101Z,5.30
2022-12-20T04:07:42.806Z,5.30
2022-12-20T04:10:10.008Z,5.40
2022-12-20T04:12:37.713Z,5.40
2022-12-20T04:15:08.568Z,5.40
2022-12-20T04:17:36.990Z,5.40
2022-12-20T04:20:19.040Z,5.40
2022-12-20T04:22:52.471Z,5.40
2022-12-20T04:25:21.293Z,5.40
2022-12-20T04:27:48.831Z,5.40
2022-12-20T04:30:16.055Z,5.40
2022-12-20T04:32:43.388Z,5.40
2022-12-20T04:35:11.599Z,5.30
2022-12-20T04:37:41.989Z,5.30
2022-12-20T04:40:09.624Z,5.30
2022-12-20T04:42:56.862Z,5.30
2022-12-20T04:45:24.523Z,5.20
2022-12-20T04:47:52.682Z,5.20
2022-12-20T04:50:25.685Z,5.20
2022-12-20T04:53:11.555Z,5.10
2022-12-20T04:55:40.500Z,5.10
2022-12-20T04:58:08.713Z,5.10
2022-12-20T05:00:38.548Z,5.10
2022-12-20T05:03:18.714Z,5.10
2022-12-20T05:05:46.148Z,5.10
2022-12-20T05:08:13.280Z,5.20
2022-12-20T05:10:40.556Z,5.20
2022-12-20T05:13:09.507Z,5.30
2022-12-20T05:15:42.596Z,5.30
2022-12-20T05:18:11.491Z,5.30
2022-12-20T05:20:45.522Z,5.30
2022-12-20T05:23:31.431Z,5.40
2022-12-20T05:26:18.301Z,5.40
2022-12-20T05:28:45.836Z,5.40
2022-12-20T05:31:12.954Z,5.40
2022-12-20T05:33:40.071Z,5.40
2022-12-20T05:36:09.219Z,5.40
2022-12-20T05:38:36.565Z,5.40
2022-12-20T05:41:09.617Z,5.50
2022-12-20T05:43:37.874Z,5.50
2022-12-20T05:46:05.296Z,5.50
2022-12-20T05:48:41.948Z,5.50
2022-12-20T05:51:09.511Z,5.50
2022-12-20T05:53:50.769Z,5.50
2022-12-20T05:56:21.044Z,5.50
2022-12-20T05:58:48.026Z,5.50
2022-12-20T06:01:15.097Z,5.50
2022-12-20T06:03:43.143Z,5.50
2022-12-20T06:06:15.217Z,5.50
2022-12-20T06:08:45.168Z,5.50
2022-12-20T06:11:25.760Z,5.50
2022-12-20T06:14:01.156Z,5.50
2022-12-20T06:16:28.947Z,5.50
2022-12-20T06:18:57.514Z,5.50
2022-12-20T06:21:24.651Z,5.60
2022-12-20T06:23:54.938Z,5.60
2022-12-20T06:26:23.413Z,5.60
2022-12-20T06:28:54.572Z,5.60
2022-12-20T06:31:25.502Z,5.60
2022-12-20T06:33:54.151Z,5.60
2022-12-20T06:36:22.842Z,5.60
2022-12-20T06:38:50.973Z,5.60
2022-12-20T06:41:18.770Z,5.70
2022-12-20T06:43:45.927Z,5.70
2022-12-20T06:46:13.249Z,5.70
2022-12-20T06:48:40.442Z,5.70
2022-12-20T06:51:09.456Z,5.70
2022-12-20T06:53:36.461Z,5.70
2022-12-20T06:56:03.614Z,5.60
2022-12-20T06:58:32.294Z,5.60
2022-12-20T07:00:59.727Z,5.60
2022-12-20T07:03:26.926Z,5.50
2022-12-20T07:05:55.434Z,5.50
2022-12-20T07:08:23.876Z,5.50
2022-12-20T07:10:52.749Z,5.50
2022-12-20T07:13:20.196Z,5.50
2022-12-20T07:15:47.201Z,5.40
2022-12-20T07:18:14.410Z,5.40
2022-12-20T07:20:41.586Z,5.40
2022-12-20T07:23:09.657Z,5.40
2022-12-20T07:25:36.627Z,5.40
2022-12-20T07:28:04.009Z,5.40
2022-12-20T07:30:31.339Z,5.40
2022-12-20T07:32:58.881Z,5.40
2022-12-20T07:35:26.713Z,5.40
2022-12-20T07:37:53.664Z,5.40
2022-12-20T07:40:20.638Z,5.40
2022-12-20T07:42:49.046Z,5.30
2022-12-20T07:45:16.435Z,5.30
2022-12-20T07:47:43.957Z,5.30
2022-12-20T07:50:11.863Z,5.20
2022-12-20T07:52:42.896Z,5.20
2022-12-20T07:55:11.783Z,5.20
2022-12-20T07:57:45.309Z,5.20
2022-12-20T08:00:13.980Z,5.30
2022-12-20T08:02:48.161Z,5.30
2022-12-20T08:05:16.158Z,5.30
2022-12-20T08:07:44.467Z,5.30
2022-12-20T08:10:14.256Z,5.30
2022-12-20T08:12:43.157Z,5.40
2022-12-20T08:15:10.689Z,5.40
2022-12-20T08:17:37.680Z,5.50
2022-12-20T08:20:06.905Z,5.50
2022-12-20T08:22:33.869Z,5.50
2022-12-20T08:25:00.986Z,5.40
2022-12-20T08:27:27.961Z,5.50
2022-12-20T08:29:54.930Z,5.50
2022-12-20T08:32:21.869Z,5.60
2022-12-20T08:34:48.807Z,5.50
2022-12-20T08:37:19.638Z,5.50
2022-12-20T08:39:46.608Z,5.50
2022-12-20T08:42:13.549Z,5.50
2022-12-20T08:44:40.517Z,5.40
2022-12-20T08:47:07.427Z,5.50
2022-12-20T08:49:34.320Z,5.50
2022-12-20T08:52:01.334Z,5.50
2022-12-20T08:54:28.297Z,5.60
2022-12-20T08:56:55.260Z,5.60
2022-12-20T08:59:22.193Z,5.70
2022-12-20T09:01:49.730Z,5.70
2022-12-20T09:04:17.424Z,5.70
2022-12-20T09:06:44.705Z,5.80
2022-12-20T09:09:11.596Z,5.80
2022-12-20T09:11:38.569Z,5.90
2022-12-20T09:14:05.734Z,5.90
2022-12-20T09:16:33.294Z,5.90
2022-12-20T09:19:05.499Z,5.90
2022-12-20T09:21:33.873Z,6.00
2022-12-20T09:24:00.963Z,6.00
2022-12-20T09:26:27.890Z,6.00
2022-12-20T09:28:55.067Z,6.00
2022-12-20T09:31:24.526Z,6.10
2022-12-20T09:33:55.064Z,6.00
2022-12-20T09:36:23.403Z,6.00
2022-12-20T09:38:51.048Z,6.00
2022-12-20T09:41:29.917Z,6.00
2022-12-20T09:43:58.831Z,6.00
2022-12-20T09:46:27.413Z,6.00
2022-12-20T09:48:54.881Z,6.10
2022-12-20T09:51:36.606Z,6.10
2022-12-20T09:54:24.723Z,6.20
2022-12-20T09:56:59.821Z,6.20
2022-12-20T09:59:27.404Z,6.20
2022-12-20T10:01:54.782Z,6.30
2022-12-20T10:04:25.248Z,6.30
2022-12-20T10:07:04.373Z,6.40
2022-12-20T10:10:05.123Z,6.40
2022-12-20T10:12:37.935Z,6.40
2022-12-20T10:15:31.077Z,6.50
2022-12-20T10:18:28.457Z,6.60
2022-12-20T10:21:23.931Z,6.80
2022-12-20T10:24:24.050Z,6.90
2022-12-20T10:26:51.801Z,7.00
2022-12-20T10:29:21.317Z,7.10
2022-12-20T10:32:00.442Z,7.10
2022-12-20T10:34:33.274Z,7.20
2022-12-20T10:37:16.136Z,7.10
2022-12-20T10:39:47.099Z,7.10
2022-12-20T10:42:39.715Z,6.90
2022-12-20T10:45:35.986Z,7.00
2022-12-20T10:48:24.265Z,7.00
2022-12-20T10:51:16.203Z,7.10
2022-12-20T10:54:04.302Z,7.30
2022-12-20T10:56:39.010Z,7.30
2022-12-20T10:59:17.982Z,7.40
2022-12-20T11:01:47.479Z,7.40
2022-12-20T11:04:34.668Z,7.60
2022-12-20T11:07:21.315Z,7.70
2022-12-20T11:10:19.144Z,7.70
2022-12-20T11:12:56.437Z,7.80
2022-12-20T11:15:34.198Z,7.80
2022-12-20T11:18:11.177Z,7.80
2022-12-20T11:20:43.547Z,7.80
2022-12-20T11:23:25.217Z,7.70
2022-12-20T11:25:52.292Z,7.70
2022-12-20T11:28:25.379Z,7.60
2022-12-20T11:30:57.970Z,7.60
2022-12-20T11:33:36.533Z,7.60
2022-12-20T11:36:12.830Z,7.60
2022-12-20T11:38:58.153Z,7.60
2022-12-20T11:41:36.182Z,7.60
2022-12-20T11:44:34.265Z,7.60
2022-12-20T11:47:16.134Z,7.60
2022-12-20T11:50:09.016Z,7.60
2022-12-20T11:53:10.722Z,7.60
2022-12-20T11:55:42.932Z,7.50
2022-12-20T11:58:18.644Z,7.50
2022-12-20T12:01:01.241Z,7.50
2022-12-20T12:03:35.886Z,7.50
2022-12-20T12:06:08.475Z,7.40
2022-12-20T12:08:38.455Z,7.40
2022-12-20T12:11:39.806Z,7.30
2022-12-20T12:14:04.624Z,7.20
2022-12-20T12:16:42.769Z,7.20
2022-12-20T12:19:12.788Z,7.30
2022-12-20T12:22:06.999Z,7.40
2022-12-20T12:24:42.562Z,7.40
2022-12-20T12:27:29.773Z,7.40
2022-12-20T12:29:58.822Z,7.40
2022-12-20T12:33:00.743Z,7.40
2022-12-20T12:35:42.481Z,7.50
2022-12-20T12:38:18.506Z,7.50
2022-12-20T12:41:22.676Z,7.60
2022-12-20T12:43:55.840Z,7.80
2022-12-20T12:46:22.816Z,7.90
2022-12-20T12:48:56.033Z,7.90
2022-12-20T12:51:34.894Z,8.00
2022-12-20T12:54:41.132Z,8.00
2022-12-20T12:57:14.673Z,7.90
2022-12-20T12:59:48.289Z,7.80
2022-12-20T13:02:22.986Z,7.70
2022-12-20T13:05:09.014Z,7.70
2022-12-20T13:07:36.578Z,7.60
2022-12-20T13:10:25.601Z,7.50
2022-12-20T13:12:58.762Z,7.50
2022-12-20T13:15:25.704Z,7.50
2022-12-20T13:18:00.758Z,7.40
2022-12-20T13:20:33.337Z,7.50
2022-12-20T13:23:08.827Z,7.40
2022-12-20T13:25:53.879Z,7.50
2022-12-20T13:28:23.715Z,7.60
2022-12-20T13:30:53.752Z,7.60
2022-12-20T13:33:48.197Z,7.70
2022-12-20T13:36:17.916Z,7.70
2022-12-20T13:38:45.683Z,7.60
2022-12-20T13:41:35.517Z,7.60
2022-12-20T13:44:23.334Z,7.60
2022-12-20T13:47:20.799Z,7.50
2022-12-20T13:49:47.873Z,7.50
2022-12-20T13:52:29.846Z,7.40
2022-12-20T13:55:05.540Z,7.40
2022-12-20T13:57:41.953Z,7.40
2022-12-20T14:00:23.343Z,7.40
2022-12-20T14:02:50.583Z,7.30
2022-12-20T14:05:37.914Z,7.30
2022-12-20T14:08:15.415Z,7.30
2022-12-20T14:10:42.483Z,7.30
2022-12-20T14:13:39.092Z,7.20
2022-12-20T14:16:17.883Z,7.20
2022-12-20T14:18:57.512Z,7.20
2022-12-20T14:21:25.895Z,7.20
2022-12-20T14:23:55.508Z,7.30
2022-12-20T14:26:48.179Z,7.20
2022-12-20T14:29:26.949Z,7.30
2022-12-20T14:31:53.961Z,7.30
2022-12-20T14:34:30.016Z,7.30
2022-12-20T14:37:32.960Z,7.30
2022-12-20T14:40:03.484Z,7.20
2022-12-20T14:42:35.028Z,7.20
2022-12-20T14:45:09.087Z,7.10
2022-12-20T14:47:37.708Z,7.10
2022-12-20T14:50:17.929Z,7.00
2022-12-20T14:52:45.765Z,6.90
2022-12-20T14:55:22.468Z,6.80
2022-12-20T14:57:52.369Z,6.80
2022-12-20T15:00:19.187Z,6.80
2022-12-20T15:02:53.402Z,6.80
2022-12-20T15:05:36.108Z,6.70
2022-12-20T15:08:19.478Z,6.70
2022-12-20T15:11:10.758Z,6.70
2022-12-20T15:13:43.370Z,6.70
2022-12-20T15:16:14.967Z,6.60
2022-12-20T15:18:42.190Z,6.70
2022-12-20T15:21:19.889Z,6.60
2022-12-20T15:23:52.111Z,6.60
2022-12-20T15:26:21.240Z,6.60
2022-12-20T15:28:48.255Z,6.60
2022-12-20T15:31:18.084Z,6.60
2022-12-20T15:33:46.257Z,6.60
2022-12-20T15:36:22.022Z,6.60
2022-12-20T15:41:37.493Z,6.60
2022-12-20T15:44:07.513Z,6.60
2022-12-20T15:46:34.536Z,6.60
2022-12-20T15:49:01.460Z,6.60
2022-12-20T15:51:32.361Z,6.70
2022-12-20T15:54:02.377Z,6.70
2022-12-20T15:56:29.661Z,6.70
2022-12-20T15:58:57.028Z,6.70
2022-12-20T16:01:40.885Z,6.70
2022-12-20T16:04:13.208Z,6.70
2022-12-20T16:06:40.158Z,6.70
2022-12-20T16:09:07.178Z,6.70
2022-12-20T16:11:34.137Z,6.70
2022-12-20T16:14:01.213Z,6.70
2022-12-20T16:16:34.658Z,6.60
2022-12-20T16:19:03.866Z,6.70
2022-12-20T16:21:44.437Z,6.70
2022-12-20T16:24:14.186Z,6.70
2022-12-20T16:26:41.170Z,6.70
2022-12-20T16:29:08.383Z,6.70
2022-12-20T16:31:40.471Z,6.70
2022-12-20T16:34:12.967Z,6.70
2022-12-20T16:36:39.987Z,6.80
2022-12-20T16:39:06.922Z,6.70
2022-12-20T16:41:34.236Z,6.70
2022-12-20T16:44:03.020Z,6.70
2022-12-20T16:46:32.356Z,6.70
2022-12-20T16:49:00.709Z,6.70
2022-12-20T16:51:28.961Z,6.70
2022-12-20T16:56:47.433Z,6.70
2022-12-20T16:59:20.820Z,6.70
2022-12-20T17:01:51.694Z,6.70
2022-12-20T17:04:19.934Z,6.70
2022-12-20T17:06:47.617Z,6.70
2022-12-20T17:12:00.590Z,6.70
2022-12-20T17:14:27.540Z,6.80
2022-12-20T17:16:54.616Z,6.80
2022-12-20T17:19:21.711Z,6.80
2022-12-20T17:24:34.104Z,6.80
2022-12-20T17:27:01.089Z,6.70
2022-12-20T17:29:28.014Z,6.80
2022-12-20T17:31:55.075Z,6.80
2022-12-20T17:34:23.454Z,6.80
2022-12-20T17:36:52.595Z,6.80
2022-12-20T17:39:19.651Z,6.80
2022-12-20T17:41:47.206Z,6.70
2022-12-20T17:44:19.712Z,6.70
2022-12-20T17:46:47.373Z,6.70
2022-12-20T17:49:15.474Z,6.80
2022-12-20T17:51:42.871Z,6.80
2022-12-20T17:54:18.626Z,6.80
2022-12-20T17:56:46.222Z,6.80
2022-12-20T17:59:14.021Z,6.80
2022-12-20T18:01:42.970Z,6.80
2022-12-20T18:04:13.408Z,6.80
2022-12-20T18:06:42.266Z,6.80
2022-12-20T18:09:17.545Z,6.80
2022-12-20T18:11:44.837Z,6.80
2022-12-20T18:14:12.420Z,6.80
2022-12-20T18:16:39.643Z,6.80
2022-12-20T18:19:08.028Z,6.70
2022-12-20T18:21:35.143Z,6.70
2022-12-20T18:24:02.048Z,6.70
2022-12-20T18:26:32.702Z,6.70
2022-12-20T18:29:02.003Z,6.70
2022-12-20T18:31:31.311Z,6.60
2022-12-20T18:33:59.605Z,6.70
2022-12-20T18:36:32.255Z,6.60
2022-12-20T18:39:00.326Z,6.70
2022-12-20T18:41:29.743Z,6.70
2022-12-20T18:43:58.889Z,6.70
2022-12-20T18:46:25.854Z,6.70
2022-12-20T18:48:55.185Z,6.70
2022-12-20T18:51:24.808Z,6.60
2022-12-20T18:53:55.364Z,6.60
2022-12-20T18:56:30.871Z,6.60
2022-12-20T18:59:03.168Z,6.60
2022-12-20T19:01:35.783Z,6.50
2022-12-20T19:04:04.761Z,6.50
2022-12-20T19:06:32.848Z,6.50
2022-12-20T19:09:01.285Z,6.60
2022-12-20T19:11:29.196Z,6.50
2022-12-20T19:13:56.344Z,6.60
2022-12-20T19:16:25.702Z,6.60
2022-12-20T19:18:52.720Z,6.60
2022-12-20T19:21:22.175Z,6.50
2022-12-20T19:23:51.641Z,6.50
2022-12-20T19:26:20.456Z,6.50
2022-12-20T19:28:48.082Z,6.60
2022-12-20T19:31:21.579Z,6.60
2022-12-20T19:33:50.964Z,6.60
2022-12-20T19:36:30.475Z,6.60
2022-12-20T19:38:59.564Z,6.70
2022-12-20T19:41:28.885Z,6.70
2022-12-20T19:43:56.846Z,6.70
2022-12-20T19:46:29.335Z,6.70
2022-12-20T19:48:58.308Z,6.70
2022-12-20T19:51:26.572Z,6.70
2022-12-20T19:53:55.022Z,6.70
2022-12-20T19:56:28.001Z,6.80
2022-12-20T19:58:55.810Z,6.80
2022-12-20T20:01:26.211Z,6.70
2022-12-20T20:03:54.904Z,6.80
2022-12-20T20:06:22.842Z,6.80
2022-12-20T20:08:50.130Z,6.80
2022-12-20T20:11:18.963Z,6.70
2022-12-20T20:13:47.808Z,6.70
2022-12-20T20:16:21.539Z,6.70
2022-12-20T20:18:49.281Z,6.70
2022-12-20T20:21:21.916Z,6.70
2022-12-20T20:23:53.262Z,6.60
2022-12-20T20:26:22.805Z,6.60
2022-12-20T20:28:50.454Z,6.70
2022-12-20T20:31:18.763Z,6.60
2022-12-20T20:33:46.308Z,6.70
2022-12-20T20:36:16.128Z,6.70
2022-12-20T20:38:43.500Z,6.60
2022-12-20T20:41:11.120Z,6.60
2022-12-20T20:43:38.397Z,6.60
2022-12-20T20:46:08.169Z,6.60
2022-12-20T20:48:36.506Z,6.60
2022-12-20T20:51:05.159Z,6.60
2022-12-20T20:53:34.107Z,6.60
2022-12-20T20:56:02.465Z,6.60
2022-12-20T20:58:29.646Z,6.70
2022-12-20T21:01:01.507Z,6.70
2022-12-20T21:03:30.774Z,6.60
2022-12-20T21:08:45.115Z,6.60
2022-12-20T21:11:12.551Z,6.70
2022-12-20T21:13:39.719Z,6.70
2022-12-20T21:16:11.934Z,6.70
2022-12-20T21:18:39.050Z,6.70
2022-12-20T21:21:08.377Z,6.70
2022-12-20T21:23:35.368Z,6.70
2022-12-20T21:26:02.574Z,6.60
2022-12-20T21:28:29.872Z,6.70
2022-12-20T21:31:06.181Z,6.70
2022-12-20T21:33:33.243Z,6.70
2022-12-20T21:36:06.102Z,6.70
2022-12-20T21:38:33.479Z,6.70
2022-12-20T21:41:02.749Z,6.70
2022-12-20T21:43:30.089Z,6.70
2022-12-20T21:45:57.307Z,6.60
2022-12-20T21:48:25.617Z,6.70
2022-12-20T21:51:03.035Z,6.70
2022-12-20T21:53:30.734Z,6.60
2022-12-20T21:55:59.883Z,6.60
2022-12-20T21:58:28.592Z,6.60
2022-12-20T22:00:56.484Z,6.60
2022-12-20T22:03:25.367Z,6.60
2022-12-20T22:05:54.147Z,6.60
2022-12-20T22:08:22.536Z,6.50
2022-12-20T22:11:09.619Z,6.50
2022-12-20T22:13:41.643Z,6.50
2022-12-20T22:16:21.007Z,6.50
2022-12-20T22:18:50.617Z,6.50
2022-12-20T22:21:19.149Z,6.50
2022-12-20T22:23:46.211Z,6.40
2022-12-20T22:26:15.591Z,6.40
2022-12-20T22:28:50.997Z,6.40
2022-12-20T22:31:18.994Z,6.40
2022-12-20T22:33:46.606Z,6.40
2022-12-20T22:36:15.654Z,6.40
2022-12-20T22:38:46.065Z,6.40
2022-12-20T22:41:18.518Z,6.40
2022-12-20T22:43:46.363Z,6.40
2022-12-20T22:46:15.431Z,6.40
2022-12-20T22:48:42.609Z,6.50
2022-12-20T22:51:16.295Z,6.50
2022-12-20T22:53:43.592Z,6.50
2022-12-20T22:56:11.304Z,6.50
2022-12-20T22:58:39.600Z,6.50
2022-12-20T23:01:08.814Z,6.50
2022-12-20T23:03:37.225Z,6.50
2022-12-20T23:06:06.310Z,6.50
2022-12-20T23:08:35.668Z,6.50
2022-12-20T23:11:21.911Z,6.50
2022-12-20T23:14:07.267Z,6.50
2022-12-20T23:16:34.197Z,6.50
2022-12-20T23:19:02.145Z,6.50
2022-12-20T23:21:48.033Z,6.50
2022-12-20T23:24:15.405Z,6.50
2022-12-20T23:26:43.253Z,6.50
2022-12-20T23:29:11.582Z,6.50
2022-12-20T23:31:38.584Z,6.50
2022-12-20T23:34:05.646Z,6.50
2022-12-20T23:36:33.334Z,6.50
2022-12-20T23:39:00.569Z,6.50
2022-12-20T23:41:28.026Z,6.50
2022-12-20T23:43:55.087Z,6.50
2022-12-20T23:46:22.496Z,6.50
2022-12-20T23:48:51.717Z,6.50
2022-12-20T23:51:20.048Z,6.50
2022-12-20T23:53:47.283Z,6.50
2022-12-20T23:56:16.991Z,6.50
2022-12-20T23:58:46.082Z,6.50
